WetterOnline ( https://www.wetteronline.de )

Wetter aktuell Dellien

Aktuelles Wetter: Lüchow (18m)

6-stündlich | Neueste Meldungen
Ortszeit Temperatur Wetter
Mi, 26.01. 13:00 2.7° C bedeckt
Mi, 26.01. 7:00 3.0° C Sprühregen
Mi, 26.01. 1:00 3.7° C bedeckt
Di, 25.01. 19:00 4.5° C bedeckt
Di, 25.01. 13:00 4.7° C bedeckt
Di, 25.01. 7:00 3.3° C bedeckt
Di, 25.01. 1:00 3.7° C bedeckt
Mo, 24.01. 19:00 5.0° C bedeckt
Ortszeit Temperatur Wetter
Mi, 26.01. 15:00 2.3° C bedeckt
Mi, 26.01. 14:40 2.3° C bewölkt
Mi, 26.01. 14:30 2.4° C bedeckt
Mi, 26.01. 14:20 2.4° C bedeckt
Mi, 26.01. 14:10 2.3° C bedeckt
Mi, 26.01. 14:00 2.5° C bedeckt
Mi, 26.01. 13:50 2.5° C bedeckt
Mi, 26.01. 13:30 2.5° C bedeckt
Mi, 26.01. 13:00 2.7° C bedeckt
Mi, 26.01. 12:30 2.8° C bedeckt
Mi, 26.01. 12:00 2.8° C Sprühregen
Ortszeit Relative Feuchte Sichtweite
Mi, 26.01. 13:00 85% 18 km
Mi, 26.01. 7:00 90% 13 km
Mi, 26.01. 1:00 92% 8 km
Di, 25.01. 19:00 91% 14 km
Di, 25.01. 13:00 91% 7 km
Di, 25.01. 7:00 86% 6 km
Di, 25.01. 1:00 83% 11 km
Mo, 24.01. 19:00 87% 22 km
Ortszeit Relative Feuchte Sichtweite
Mi, 26.01. 15:00 87% 9 km
Mi, 26.01. 14:40 88% -
Mi, 26.01. 14:30 87% 8 km
Mi, 26.01. 14:20 87% -
Mi, 26.01. 14:10 87% -
Mi, 26.01. 14:00 86% 9 km
Mi, 26.01. 13:50 86% -
Mi, 26.01. 13:30 85% -
Mi, 26.01. 13:00 85% 18 km
Mi, 26.01. 12:30 86% 17 km
Mi, 26.01. 12:00 89% 15 km
Ortszeit Niederschlagsmenge Niederschlagsart
Mi, 26.01. 13:00 0.1 l/m2 in 6 Std. Regen
Mi, 26.01. 7:00 0.1 l/m2 in 12 Std. Sprühregen
Mi, 26.01. 1:00 0.0 l/m2 in 6 Std. -
Di, 25.01. 19:00 0.1 l/m2 in 12 Std. Sprühregen
Di, 25.01. 13:00 0.1 l/m2 in 6 Std. Regen
Di, 25.01. 7:00 0.1 l/m2 in 12 Std. Sprühregen
Di, 25.01. 1:00 0.1 l/m2 in 6 Std. Sprühregen
Mo, 24.01. 19:00 0.1 l/m2 in 12 Std. Sprühregen
Ortszeit Niederschlagsmenge Niederschlagsart
Mi, 26.01. 15:00 0.1 l/m2 in 1 Std. Sprühregen
Mi, 26.01. 14:40 keine Meldung -
Mi, 26.01. 14:30 0.0 l/m2 in 1 Std. -
Mi, 26.01. 14:20 keine Meldung -
Mi, 26.01. 14:10 keine Meldung -
Mi, 26.01. 14:00 0.0 l/m2 in 1 Std. -
Mi, 26.01. 13:50 keine Meldung -
Mi, 26.01. 13:30 0.0 l/m2 in 1 Std. -
Mi, 26.01. 13:00 0.1 l/m2 in 1 Std. Regen
Mi, 26.01. 12:30 0.1 l/m2 in 1 Std. Schnee
Mi, 26.01. 12:00 0.1 l/m2 in 1 Std. Regen
Ortszeit Stärke Spitze Richtung
km/h Bft. km/h Grad Sektor
Mi, 26.01. 13:00 18 3 36 240° SW
Mi, 26.01. 7:00 13 3 24 250° W
Mi, 26.01. 1:00 11 2 25 260° W
Di, 25.01. 19:00 11 2 22 260° W
Di, 25.01. 13:00 13 3 20 260° W
Di, 25.01. 7:00 7 2 17 250° W
Di, 25.01. 1:00 6 1 19 270° W
Mo, 24.01. 19:00 4 1 14 310° NW
Ortszeit Stärke Spitze Richtung
km/h Bft. km/h Grad Sektor
Mi, 26.01. 15:00 18 3 32 240° SW
Mi, 26.01. 14:40 17 3 - 240° SW
Mi, 26.01. 14:30 14 3 32 250° W
Mi, 26.01. 14:20 14 3 - 250° W
Mi, 26.01. 14:10 18 3 - 240° SW
Mi, 26.01. 14:00 14 3 29 240° SW
Mi, 26.01. 13:50 14 3 - 240° SW
Mi, 26.01. 13:30 14 3 25 240° SW
Mi, 26.01. 13:00 18 3 32 240° SW
Mi, 26.01. 12:30 14 3 32 240° SW
Mi, 26.01. 12:00 14 3 25 240° SW
Ortszeit Untergrenze Bedeckung Gattung
total tief tief mittel hoch
Mi, 26.01. 13:00 450 m 8/8 8/8 - - -
Mi, 26.01. 7:00 270 m 8/8 8/8 - - -
Mi, 26.01. 1:00 240 m 8/8 8/8 - - -
Di, 25.01. 19:00 270 m 8/8 8/8 - - -
Di, 25.01. 13:00 180 m 8/8 8/8 - - -
Di, 25.01. 7:00 510 m 8/8 8/8 - - -
Di, 25.01. 1:00 510 m 8/8 8/8 - - -
Mo, 24.01. 19:00 480 m 8/8 8/8 - - -
Ortszeit Bedeckungsgrad in Achtel und Wolkenuntergrenze
Mi, 26.01. 15:00 7(330m) 8(750m)
Mi, 26.01. 14:40 7
Mi, 26.01. 14:30 8(330m)
Mi, 26.01. 14:20 8(330m)
Mi, 26.01. 14:10 8
Mi, 26.01. 14:00 8(330m)
Mi, 26.01. 13:50 8(330m)
Mi, 26.01. 13:30 8(390m)
Mi, 26.01. 13:00 7(450m) 8(600m)
Mi, 26.01. 12:30 5(390m) 8(600m)
Mi, 26.01. 12:00 6(330m) 7(510m) 8(780m)
Ortszeit Luftdruck NN (hPa) Tendenz (hPa in 3 Std.)
Mi, 26.01. 13:00 1028 - 0,6
Mi, 26.01. 7:00 1029 - 0,8
Mi, 26.01. 1:00 1031 - 0,4
Di, 25.01. 19:00 1032 - 0,1
Di, 25.01. 13:00 1032 - 0,5
Di, 25.01. 7:00 1033 - 0,7
Di, 25.01. 1:00 1034 + 0,1
Mo, 24.01. 19:00 1034 0,0
Ortszeit Luftdruck NN (hPa) Tendenz (hPa in 3 Std.)
Mi, 26.01. 15:00 1027 - 1,9
Mi, 26.01. 14:40 1027 keine Meldung
Mi, 26.01. 14:30 1028 - 1,6
Mi, 26.01. 14:20 1028 keine Meldung
Mi, 26.01. 14:10 1028 keine Meldung
Mi, 26.01. 14:00 1028 - 1,5
Mi, 26.01. 13:50 1028 keine Meldung
Mi, 26.01. 13:30 1028 - 1,1
Mi, 26.01. 13:00 1028 - 0,6
Mi, 26.01. 12:30 1029 - 0,1
Mi, 26.01. 12:00 1029 + 0,4
Ortszeit Schneehöhe (cm)
Mi, 26.01. 13:00 0
Mi, 26.01. 7:00 0
Mi, 26.01. 1:00 0
Di, 25.01. 19:00 0
Di, 25.01. 13:00 0
Di, 25.01. 7:00 0
Di, 25.01. 1:00 0
Mo, 24.01. 19:00 0
Ortszeit Schneehöhe (cm)
Mi, 26.01. 15:00 0
Mi, 26.01. 14:40 0
Mi, 26.01. 14:30 0
Mi, 26.01. 14:20 0
Mi, 26.01. 14:10 0
Mi, 26.01. 14:00 0
Mi, 26.01. 13:50 0
Mi, 26.01. 13:30 0
Mi, 26.01. 13:00 0
Mi, 26.01. 12:30 0
Mi, 26.01. 12:00 0
Link zu dieser Seite / Seite empfehlen

Das Wetter in ...